Time;durP1;ratioP1;P1;durP2;ratioP2;P2;SDS_P1;SDS_P2;PMS_P1;PMS_P2;Temp;Humidity;BMP_temperature;BMP_pressure;BME280_temperature;BME280_humidity;BME280_pressure;Samples;Min_cycle;Max_cycle;Signal;HPM_P1;HPM_P2
2022/04/10 00:00:43;;;;;;;2.17;1.70;;;;;;;;;;5079514;28;20540;-94
2022/04/10 00:03:11;;;;;;;3.70;3.20;;;;;;;;;;5078785;28;20890;-94
2022/04/10 00:05:38;;;;;;;4.43;2.10;;;;;;;;;;5079069;28;20446;-94
2022/04/10 00:08:07;;;;;;;4.97;2.60;;;;;;;;;;5079275;28;20800;-94
2022/04/10 00:10:35;;;;;;;4.63;3.43;;;;;;;;;;5078913;28;20488;-94
2022/04/10 00:13:03;;;;;;;6.73;3.30;;;;;;;;;;5079436;28;20445;-94
2022/04/10 00:15:31;;;;;;;4.40;2.17;;;;;;;;;;5078549;28;20449;-94
2022/04/10 00:18:01;;;;;;;3.27;2.00;;;;;;;;;;5079710;28;20489;-93
2022/04/10 00:20:28;;;;;;;2.93;2.23;;;;;;;;;;5080374;28;20541;-94
2022/04/10 00:22:56;;;;;;;4.40;2.03;;;;;;;;;;5081467;28;20796;-95
2022/04/10 00:25:25;;;;;;;3.53;1.90;;;;;;;;;;5081980;28;20442;-93
2022/04/10 00:27:52;;;;;;;1.70;1.50;;;;;;;;;;5081955;28;20892;-92
2022/04/10 00:30:23;;;;;;;2.70;2.50;;;;;;;;;;5080254;28;20484;-94
2022/04/10 00:32:52;;;;;;;2.77;2.13;;;;;;;;;;5081309;28;20450;-94
2022/04/10 00:35:19;;;;;;;2.80;2.60;;;;;;;;;;5084674;28;20464;-94
2022/04/10 00:37:46;;;;;;;4.10;2.70;;;;;;;;;;5088150;28;20452;-94
2022/04/10 00:40:14;;;;;;;2.80;2.10;;;;;;;;;;5096502;28;20444;-94
2022/04/10 00:42:48;;;;;;;6.20;3.13;;;;;;;;;;5099720;28;20457;-94
2022/04/10 00:45:16;;;;;;;2.10;1.50;;;;;;;;;;5082092;28;20838;-93
2022/04/10 00:47:45;;;;;;;3.03;2.70;;;;;;;;;;5075767;28;20465;-96
2022/04/10 00:50:19;;;;;;;3.40;1.03;;;;;;;;;;5077517;28;20524;-95
2022/04/10 00:52:52;;;;;;;5.73;2.60;;;2.60;99.90;;;;;;5078059;28;20450;-94
2022/04/10 00:55:20;;;;;;;2.07;1.80;;;;;;;;;;5077863;28;20957;-93
2022/04/10 00:57:49;;;;;;;7.57;2.80;;;;;;;;;;5078042;28;20474;-94
2022/04/10 01:00:23;;;;;;;5.70;3.13;;;;;;;;;;5077900;28;20524;-93
2022/04/10 01:02:54;;;;;;;4.00;2.67;;;;;;;;;;5077544;28;20456;-93
2022/04/10 01:05:21;;;;;;;1.40;1.10;;;;;;;;;;5077263;28;20449;-93
2022/04/10 01:07:49;;;;;;;3.67;2.00;;;;;;;;;;5077338;28;20441;-94
2022/04/10 01:10:17;;;;;;;4.93;1.90;;;;;;;;;;5076958;28;20473;-96
2022/04/10 01:12:45;;;;;;;6.60;3.30;;;;;;;;;;5077512;28;20453;-95
2022/04/10 01:15:15;;;;;;;4.00;2.13;;;;;;;;;;5077709;28;20460;-93
2022/04/10 01:17:43;;;;;;;3.10;1.77;;;;;;;;;;5076869;28;20450;-93
2022/04/10 01:20:27;;;;;;;7.40;2.83;;;;;;;;;;5077810;28;20485;-92
2022/04/10 01:22:56;;;;;;;9.10;1.27;;;;;;;;;;5077480;28;20446;-93
2022/04/10 01:25:28;;;;;;;2.93;2.50;;;;;;;;;;5075415;28;20450;-93
2022/04/10 01:27:57;;;;;;;3.90;3.60;;;;;;;;;;5077718;28;20454;-95
2022/04/10 01:30:25;;;;;;;5.37;3.13;;;;;;;;;;5077353;28;20594;-94
2022/04/10 01:32:53;;;;;;;6.77;3.27;;;;;;;;;;5075823;28;20442;-94
2022/04/10 01:35:23;;;;;;;6.80;3.33;;;;;;;;;;5078188;28;20454;-95
2022/04/10 01:37:51;;;;;;;3.80;2.50;;;;;;;;;;5078145;28;20488;-95
2022/04/10 01:40:21;;;;;;;8.20;3.23;;;;;;;;;;5078296;28;20910;-95
2022/04/10 01:42:49;;;;;;;5.17;3.43;;;;;;;;;;5078109;28;20446;-94
2022/04/10 01:45:16;;;;;;;6.57;3.07;;;;;;;;;;5076869;28;20509;-94
2022/04/10 01:47:45;;;;;;;3.63;3.07;;;;;;;;;;5076205;28;20808;-94
2022/04/10 01:50:12;;;;;;;3.23;2.23;;;;;;;;;;5078119;28;20485;-93
2022/04/10 01:52:39;;;;;;;6.60;2.70;;;;;;;;;;5079014;28;20544;-94
2022/04/10 01:55:07;;;;;;;2.50;2.30;;;;;;;;;;5079016;28;20536;-94
2022/04/10 01:57:36;;;;;;;5.30;2.77;;;;;;;;;;5076873;28;20474;-95
2022/04/10 02:00:05;;;;;;;5.90;3.27;;;;;;;;;;5078846;28;20529;-93
2022/04/10 02:02:32;;;;;;;5.90;3.23;;;;;;;;;;5077493;28;20795;-94
2022/04/10 02:04:59;;;;;;;5.07;3.80;;;;;;;;;;5077099;28;21015;-94
2022/04/10 02:07:27;;;;;;;4.70;3.53;;;;;;;;;;5077919;28;20545;-94
2022/04/10 02:09:54;;;;;;;7.30;2.97;;;;;;;;;;5077353;28;21007;-94
2022/04/10 02:12:22;;;;;;;5.13;2.63;;;;;;;;;;5078252;28;20485;-95
2022/04/10 02:14:51;;;;;;;4.53;2.87;;;;;;;;;;5080591;28;20456;-93
2022/04/10 02:17:18;;;;;;;7.43;3.00;;;;;;;;;;5080189;28;20473;-95
2022/04/10 02:19:45;;;;;;;4.30;2.40;;;;;;;;;;5081222;28;20796;-94
2022/04/10 02:22:13;;;;;;;4.20;3.27;;;;;;;;;;5079239;28;20457;-95
2022/04/10 02:24:40;;;;;;;3.30;3.00;;;;;;;;;;5081191;28;20943;-94
2022/04/10 02:27:07;;;;;;;5.23;3.50;;;;;;;;;;5083729;28;20933;-94
2022/04/10 02:29:34;;;;;;;5.93;3.17;;;;;;;;;;5089101;28;20452;-93
2022/04/10 02:32:04;;;;;;;4.53;2.97;;;;;;;;;;5090264;28;20500;-93
2022/04/10 02:34:32;;;;;;;4.70;3.33;;;;;;;;;;5091622;28;20454;-93
2022/04/10 02:37:00;;;;;;;5.40;3.43;;;;;;;;;;5093272;28;20461;-93
2022/04/10 02:39:27;;;;;;;5.50;3.27;;;;;;;;;;5092787;28;20476;-93
2022/04/10 02:41:54;;;;;;;5.37;3.30;;;;;;;;;;5080023;28;20926;-95
2022/04/10 02:44:21;;;;;;;2.43;2.23;;;;;;;;;;5078916;28;20461;-92
2022/04/10 02:46:51;;;;;;;7.20;2.90;;;;;;;;;;5078042;28;20461;-93
2022/04/10 02:49:20;;;;;;;6.80;3.30;;;;;;;;;;5077627;28;20479;-94
2022/04/10 02:51:49;;;;;;;2.73;1.10;;;;;;;;;;5076655;28;20489;-94
2022/04/10 02:54:17;;;;;;;5.93;3.47;;;;;;;;;;5076318;28;20457;-96
2022/04/10 02:56:44;;;;;;;4.90;3.10;;;;;;;;;;5075468;28;20981;-93
2022/04/10 02:59:11;;;;;;;3.07;2.43;;;;;;;;;;5076685;28;20454;-95
2022/04/10 03:01:39;;;;;;;4.80;3.10;;;;;;;;;;5074935;28;20452;-93
2022/04/10 03:04:06;;;;;;;3.40;3.10;;;;;;;;;;5076910;28;20468;-93
2022/04/10 03:06:35;;;;;;;4.10;3.10;;;;;;;;;;5077511;28;20453;-93
2022/04/10 03:09:02;;;;;;;3.07;2.77;;;;;;;;;;5076732;28;20945;-94
2022/04/10 03:11:30;;;;;;;6.90;4.00;;;;;;;;;;5075508;28;20485;-93
2022/04/10 03:13:57;;;;;;;5.67;3.77;;;;;;;;;;5076379;28;20814;-93
2022/04/10 03:16:24;;;;;;;2.40;2.13;;;;;;;;;;5075411;28;20449;-93
2022/04/10 03:18:52;;;;;;;5.40;3.27;;;;;;;;;;5077384;28;20457;-95
2022/04/10 03:21:19;;;;;;;6.37;3.60;;;;;;;;;;5080341;28;20446;-94
2022/04/10 03:23:50;;;;;;;5.10;3.70;;;;;;;;;;5079872;28;20438;-93
2022/04/10 03:26:17;;;;;;;4.77;3.30;;;;;;;;;;5081579;28;20452;-93
2022/04/10 03:28:45;;;;;;;7.30;3.87;;;;;;;;;;5082071;28;20455;-94
2022/04/10 03:31:12;;;;;;;4.13;3.27;;;;;;;;;;5082930;28;20492;-94
2022/04/10 03:33:39;;;;;;;3.83;3.43;;;;;;;;;;5083308;28;20475;-94
2022/04/10 03:36:07;;;;;;;6.73;3.93;;;;;;;;;;5081880;28;20446;-94
2022/04/10 03:38:34;;;;;;;3.80;3.47;;;;;;;;;;5083351;28;20446;-94
2022/04/10 03:41:02;;;;;;;6.80;4.37;;;;;;;;;;5087279;28;20521;-95
2022/04/10 03:43:31;;;;;;;5.57;4.37;;;;;;;;;;5091711;28;20445;-93
2022/04/10 03:45:58;;;;;;;5.17;3.90;;;;;;;;;;5098973;28;20525;-94
2022/04/10 03:48:26;;;;;;;5.20;4.00;;;;;;;;;;5100519;28;20473;-94
2022/04/10 03:50:53;;;;;;;6.60;4.63;;;;;;;;;;5086451;28;20481;-93
2022/04/10 03:53:21;;;;;;;4.27;3.50;;;;;;;;;;5082054;28;20455;-94
2022/04/10 03:55:49;;;;;;;9.40;3.77;;;;;;;;;;5081053;28;20484;-94
2022/04/10 03:58:18;;;;;;;6.00;4.27;;;;;;;;;;5079941;28;20941;-93
2022/04/10 04:00:47;;;;;;;7.57;4.00;;;;;;;;;;5079490;28;20437;-93
2022/04/10 04:03:14;;;;;;;7.10;5.03;;;;;;;;;;5079231;28;20492;-94
2022/04/10 04:05:42;;;;;;;4.73;4.20;;;;;;;;;;5079177;28;20450;-95
2022/04/10 04:08:09;;;;;;;5.67;4.10;;;;;;;;;;5077437;28;20458;-93
2022/04/10 04:10:36;;;;;;;3.80;2.10;;;;;;;;;;5077348;28;20454;-95
2022/04/10 04:13:04;;;;;;;9.20;4.30;;;;;;;;;;5077815;28;20460;-93
2022/04/10 04:15:32;;;;;;;9.47;5.10;;;;;;;;;;5079085;28;20453;-94
2022/04/10 04:18:04;;;;;;;3.07;2.40;;;;;;;;;;5077354;28;20533;-92
2022/04/10 04:20:31;;;;;;;5.03;4.13;;;;;;;;;;5079100;28;20454;-93
2022/04/10 04:23:01;;;;;;;9.43;4.73;;;;;;;;;;5097995;28;20509;-92
2022/04/10 04:25:28;;;;;;;7.37;5.20;;;;;;;;;;5101049;28;20990;-94
2022/04/10 04:27:56;;;;;;;7.23;4.73;;;;;;;;;;5100308;28;20444;-94
2022/04/10 04:30:23;;;;;;;4.60;3.50;;;;;;;;;;5098976;28;20466;-93
2022/04/10 04:32:55;;;;;;;6.67;5.23;;;;;;;;;;5096538;28;20481;-94
2022/04/10 04:35:25;;;;;;;5.47;4.70;;;;;;;;;;5089482;28;20474;-93
2022/04/10 04:37:53;;;;;;;4.77;4.20;;;;;;;;;;5087507;28;20437;-93
2022/04/10 04:40:20;;;;;;;8.00;5.70;;;;;;;;;;5097942;28;20826;-93
2022/04/10 04:42:48;;;;;;;6.53;4.20;;;;;;;;;;5097711;28;20476;-93
2022/04/10 04:45:16;;;;;;;4.57;3.27;;;;;;;;;;5098871;28;20451;-93
2022/04/10 04:47:44;;;;;;;7.73;5.80;;;;;;;;;;5083652;28;20495;-94
2022/04/10 04:50:13;;;;;;;7.53;5.00;;;;;;;;;;5087687;28;20457;-95
2022/04/10 04:52:43;;;;;;;11.37;5.20;;;;;;;;;;5078540;28;20491;-93
2022/04/10 04:55:12;;;;;;;7.60;5.50;;;;;;;;;;5098469;28;20444;-95
2022/04/10 04:57:40;;;;;;;6.20;4.43;;;;;;;;;;5092603;28;20452;-95
2022/04/10 05:00:08;;;;;;;7.70;5.90;;;;;;;;;;5093494;28;20954;-94
2022/04/10 05:02:37;;;;;;;6.67;5.97;;;;;;;;;;5078481;28;20983;-95
2022/04/10 05:05:05;;;;;;;9.13;5.23;;;;;;;;;;5078656;28;20458;-94
2022/04/10 05:07:33;;;;;;;3.97;3.57;;;;;;;;;;5086908;28;20456;-94
2022/04/10 05:10:04;;;;;;;8.13;5.43;;;;;;;;;;5083881;28;20453;-93
2022/04/10 05:12:32;;;;;;;6.33;5.67;;;;;;;;;;5091722;28;20481;-94
2022/04/10 05:15:00;;;;;;;6.50;4.87;;;;;;;;;;5079005;28;20540;-94
2022/04/10 05:17:32;;;;;;;8.53;5.23;;;;;;;;;;5081994;28;20449;-94
2022/04/10 05:20:07;;;;;;;8.20;3.30;;;;;;;;;;5083200;28;20453;-94
2022/04/10 05:22:43;;;;;;;5.23;3.80;;;;;;;;;;5096090;28;20449;-93
2022/04/10 05:25:11;;;;;;;8.30;5.70;;;;;;;;;;5078726;28;20471;-96
2022/04/10 05:27:38;;;;;;;9.10;3.93;;;;;;;;;;5086135;28;20439;-96
2022/04/10 05:30:14;;;;;;;5.23;4.23;;;;;;;;;;5082205;28;20446;-94
2022/04/10 05:32:50;;;;;;;8.30;4.97;;;;;;;;;;5078953;28;20487;-94
2022/04/10 05:35:17;;;;;;;9.23;3.83;;;;;;;;;;5077245;28;20456;-93
2022/04/10 05:37:49;;;;;;;6.50;4.80;;;;;;;;;;5095095;28;20447;-95
2022/04/10 05:40:17;;;;;;;4.47;4.07;;;;;;;;;;5091544;28;20945;-94
2022/04/10 05:42:49;;;;;;;6.10;5.20;;;;;;;;;;5091747;28;20947;-95
2022/04/10 05:45:17;;;;;;;6.23;4.33;;;;;;;;;;5097666;28;20444;-96
2022/04/10 05:47:47;;;;;;;3.13;2.83;;;;;;;;;;5081968;28;21028;-93
2022/04/10 05:50:15;;;;;;;5.13;3.50;;;;;;;;;;5076712;28;20454;-94
2022/04/10 05:52:44;;;;;;;5.00;4.50;;;2.80;99.90;;;;;;5089018;28;20481;-95
2022/04/10 05:55:13;;;;;;;4.17;3.77;;;;;;;;;;5074148;28;20458;-94
2022/04/10 05:57:41;;;;;;;4.80;4.27;;;;;;;;;;5076453;28;20438;-94
2022/04/10 06:00:10;;;;;;;5.23;3.27;;;2.90;99.90;;;;;;5075528;28;20456;-93
2022/04/10 06:03:00;;;;;;;5.87;4.53;;;;;;;;;;5076581;28;20488;-94
2022/04/10 06:05:27;;;;;;;5.57;4.03;;;;;;;;;;5076947;28;20808;-92
2022/04/10 06:07:55;;;;;;;6.93;4.70;;;;;;;;;;5069119;28;20457;-94
2022/04/10 06:10:23;;;;;;;7.10;4.00;;;;;;;;;;5065547;28;20450;-93
2022/04/10 06:12:51;;;;;;;4.37;2.70;;;;;;;;;;5058219;28;20986;-93
2022/04/10 06:15:20;;;;;;;7.43;4.33;;;;;;;;;;5061449;28;20443;-94
2022/04/10 06:17:47;;;;;;;5.60;3.97;;;;;;;;;;5077962;28;20446;-93
2022/04/10 06:22:56;;;;;;;4.37;3.83;;;;;;;;;;5066243;28;20460;-93
2022/04/10 06:25:36;;;;;;;2.03;1.80;;;;;;;;;;5061797;28;20434;-94
2022/04/10 06:28:03;;;;;;;4.67;3.70;;;;;;;;;;5056041;28;20477;-92
2022/04/10 06:30:30;;;;;;;5.17;4.37;;;;;;;;;;5082151;22;20444;-93
2022/04/10 06:32:57;;;;;;;8.20;4.93;;;;;;;;;;5062422;28;20482;-92
2022/04/10 06:35:25;;;;;;;11.10;3.80;;;;;;;;;;5056929;28;21299;-92
2022/04/10 06:37:52;;;;;;;3.80;3.50;;;;;;;;;;5061462;28;20455;-91
2022/04/10 06:40:19;;;;;;;3.97;2.90;;;;;;;;;;5060587;28;20594;-92
2022/04/10 06:42:48;;;;;;;4.03;3.63;;;4.10;99.90;;;;;;5057602;28;20502;-92
2022/04/10 06:45:16;;;;;;;7.03;3.17;;;;;;;;;;5040358;28;20482;-92
2022/04/10 06:47:44;;;;;;;9.13;4.60;;;;;;;;;;5059434;28;20458;-94
2022/04/10 06:50:12;;;;;;;3.50;3.20;;;;;;;;;;5065741;28;20447;-92
2022/04/10 06:52:39;;;;;;;6.83;4.10;;;;;;;;;;5069632;28;20498;-92
2022/04/10 06:55:09;;;;;;;4.27;3.70;;;;;;;;;;5076983;28;20468;-93
2022/04/10 06:57:36;;;;;;;4.37;3.50;;;;;;;;;;5020451;28;20913;-93
2022/04/10 07:00:05;;;;;;;7.23;4.63;;;;;;;;;;5019007;28;20444;-93
2022/04/10 07:02:33;;;;;;;4.13;3.73;;;;;;;;;;5015847;28;20448;-94
2022/04/10 07:05:01;;;;;;;5.00;3.97;;;;;;;;;;5015704;28;20452;-93
2022/04/10 07:07:28;;;;;;;6.80;3.57;;;;;;;;;;5015818;28;20424;-90
2022/04/10 07:09:55;;;;;;;3.33;3.03;;;;;;;;;;5017675;28;20440;-89
2022/04/10 07:12:22;;;;;;;1.97;1.37;;;;;;;;;;5017282;28;20479;-93
2022/04/10 07:14:49;;;;;;;4.33;3.93;;;;;;;;;;5012002;28;20555;-92
2022/04/10 07:17:18;;;;;;;4.50;4.10;;;;;;;;;;5015467;28;20455;-92
2022/04/10 07:19:46;;;;;;;3.17;2.80;;;;;;;;;;5019102;28;20456;-91
2022/04/10 07:24:58;;;;;;;6.13;4.33;;;;;;;;;;5078771;28;20579;-90
2022/04/10 07:27:25;;;;;;;5.43;3.43;;;;;;;;;;5077703;28;20446;-93
2022/04/10 07:29:52;;;;;;;5.87;4.63;;;;;;;;;;5076365;28;20480;-90
2022/04/10 07:32:20;;;;;;;5.13;4.10;;;5.80;99.90;;;;;;5077214;28;20497;-87
2022/04/10 07:34:47;;;;;;;3.63;3.27;;;;;;;;;;5077733;28;20819;-89
2022/04/10 07:37:14;;;;;;;5.77;4.73;;;;;;;;;;5077532;28;20445;-93
2022/04/10 07:39:44;;;;;;;4.90;4.30;;;;;;;;;;5079948;22;20479;-89
2022/04/10 07:42:12;;;;;;;6.17;3.73;;;6.30;99.90;;;;;;5061452;22;20521;-88
2022/04/10 07:44:39;;;;;;;3.60;2.50;;;;;;;;;;5056211;22;20479;-87
2022/04/10 07:49:53;;;;;;;4.50;3.57;;;6.40;99.90;;;;;;5049654;28;20478;-87
2022/04/10 07:52:20;;;;;;;11.37;4.10;;;;;;;;;;5050094;28;21061;-90
2022/04/10 07:54:47;;;;;;;5.40;4.23;;;;;;;;;;5061780;28;20475;-89
2022/04/10 07:57:16;;;;;;;4.07;3.60;;;;;;;;;;5061279;28;20859;-91
2022/04/10 07:59:43;;;;;;;4.17;3.70;;;;;;;;;;5061575;28;20455;-92
2022/04/10 08:02:10;;;;;;;7.03;3.87;;;;;;;;;;5058666;28;20748;-91
2022/04/10 08:04:38;;;;;;;6.20;4.53;;;;;;;;;;5058390;28;20923;-92
2022/04/10 08:07:07;;;;;;;6.23;2.77;;;7.40;99.90;;;;;;5057617;28;20488;-92
2022/04/10 08:09:34;;;;;;;6.53;4.00;;;;;;;;;;5056842;28;20450;-90
2022/04/10 08:12:01;;;;;;;7.03;3.43;;;;;;;;;;5056521;28;20465;-93
2022/04/10 08:14:28;;;;;;;4.70;3.77;;;;;;;;;;5058523;28;20477;-94
2022/04/10 08:16:55;;;;;;;7.70;3.23;;;;;;;;;;5057605;28;20423;-92
2022/04/10 08:19:23;;;;;;;2.80;2.30;;;;;;;;;;5058363;28;20454;-93
2022/04/10 08:21:50;;;;;;;7.03;3.70;;;;;;;;;;5058358;28;20466;-93
2022/04/10 08:24:19;;;;;;;13.37;3.97;;;;;;;;;;5058651;28;20454;-94
2022/04/10 08:26:46;;;;;;;7.23;3.50;;;;;;;;;;5057619;28;20454;-91
2022/04/10 08:29:13;;;;;;;6.53;3.60;;;;;;;;;;5055745;28;20447;-93
2022/04/10 08:31:41;;;;;;;5.30;3.60;;;;;;;;;;5059339;28;20439;-91
2022/04/10 08:34:09;;;;;;;3.23;2.67;;;9.10;99.90;;;;;;5059058;28;20506;-88
2022/04/10 08:36:36;;;;;;;3.50;3.20;;;;;;;;;;5058401;28;20481;-89
2022/04/10 08:39:04;;;;;;;2.67;2.40;;;;;;;;;;5058754;28;20447;-93
2022/04/10 08:41:34;;;;;;;2.90;2.60;;;8.60;99.60;;;;;;5056982;28;20934;-92
2022/04/10 08:44:02;;;;;;;6.83;2.80;;;8.50;99.00;;;;;;5057710;28;20504;-90
2022/04/10 08:46:30;;;;;;;5.13;2.57;;;8.50;99.90;;;;;;5055960;28;20953;-94
2022/04/10 08:48:59;;;;;;;4.30;2.90;;;8.50;99.50;;;;;;5057325;28;20439;-94
2022/04/10 08:51:28;;;;;;;6.50;3.30;;;8.40;99.90;;;;;;5056110;28;20442;-92
2022/04/10 08:53:55;;;;;;;3.47;2.57;;;8.50;99.90;;;;;;5053738;28;20521;-91
2022/04/10 08:56:23;;;;;;;5.83;3.37;;;;;;;;;;5050949;28;20435;-92
2022/04/10 08:58:52;;;;;;;6.67;3.00;;;;;;;;;;5057460;28;20470;-93
2022/04/10 09:01:23;;;;;;;3.00;2.80;;;7.40;99.90;;;;;;5051598;28;20447;-92
2022/04/10 09:03:50;;;;;;;2.43;2.23;;;;;;;;;;5048170;28;20442;-92
2022/04/10 09:06:20;;;;;;;7.23;3.00;;;;;;;;;;5057256;28;20443;-89
2022/04/10 09:08:47;;;;;;;3.83;3.23;;;;;;;;;;5058251;28;20486;-91
2022/04/10 09:11:15;;;;;;;3.43;2.50;;;;;;;;;;5052702;28;20818;-93
2022/04/10 09:13:46;;;;;;;5.70;2.50;;;7.70;98.80;;;;;;5054923;28;20481;-92
2022/04/10 09:16:16;;;;;;;3.10;2.47;;;8.20;99.80;;;;;;5054606;28;20473;-94
2022/04/10 09:18:53;;;;;;;5.50;2.80;;;8.80;99.40;;;;;;5057263;28;20451;-91
2022/04/10 09:21:22;;;;;;;4.10;2.53;;;8.80;97.80;;;;;;5057722;28;20454;-93
2022/04/10 09:23:58;;;;;;;4.57;2.83;;;9.20;98.80;;;;;;5057138;28;20458;-92
2022/04/10 09:26:26;;;;;;;4.90;2.53;;;;;;;;;;5056672;28;20446;-93
2022/04/10 09:28:53;;;;;;;2.33;1.87;;;;;;;;;;5055405;28;20450;-93
2022/04/10 09:31:32;;;;;;;3.20;1.90;;;8.70;97.90;;;;;;5053715;28;20450;-90
2022/04/10 09:34:01;;;;;;;3.50;2.67;;;8.30;97.60;;;;;;5056590;28;20854;-91
2022/04/10 09:36:32;;;;;;;5.17;2.80;;;8.40;98.70;;;;;;5020965;28;20497;-89
2022/04/10 09:39:00;;;;;;;4.50;2.67;;;;;;;;;;5056904;28;20442;-90
2022/04/10 09:41:27;;;;;;;8.60;2.60;;;;;;;;;;5055413;28;20914;-91
2022/04/10 09:43:54;;;;;;;3.40;3.00;;;;;;;;;;5057151;28;20474;-93
2022/04/10 09:46:21;;;;;;;2.97;2.53;;;;;;;;;;5054544;28;20508;-90
2022/04/10 09:48:50;;;;;;;3.67;2.60;;;8.90;96.80;;;;;;5056865;28;20791;-91
2022/04/10 09:51:17;;;;;;;5.07;3.10;;;;;;;;;;5060868;28;20447;-89
2022/04/10 09:54:01;;;;;;;4.37;3.77;;;10.90;96.40;;;;;;5059694;28;20498;-88
2022/04/10 09:56:38;;;;;;;4.00;3.60;;;11.60;92.40;;;;;;5059147;28;20501;-89
2022/04/10 09:59:07;;;;;;;5.50;4.03;;;12.40;92.10;;;;;;5062380;28;20443;-90
2022/04/10 10:01:34;;;;;;;9.70;5.67;;;;;;;;;;5056945;28;20438;-90
2022/04/10 10:04:03;;;;;;;5.83;3.17;;;12.40;90.00;;;;;;5056408;28;20473;-92
2022/04/10 10:06:35;;;;;;;2.27;2.00;;;;;;;;;;5057167;28;20435;-93
2022/04/10 10:09:02;;;;;;;3.50;2.10;;;10.90;84.70;;;;;;5055173;28;20462;-91
2022/04/10 10:11:31;;;;;;;3.20;1.23;;;9.80;87.60;;;;;;4974269;28;20446;-90
2022/04/10 10:13:58;;;;;;;2.30;2.10;;;;;;;;;;4942267;28;21125;-91
2022/04/10 10:16:25;;;;;;;3.57;1.50;;;;;;;;;;4974925;28;20461;-92
2022/04/10 10:18:52;;;;;;;3.13;2.57;;;;;;;;;;4974894;28;20474;-93
2022/04/10 10:21:22;;;;;;;4.00;1.57;;;7.40;99.90;;;;;;4975612;28;20458;-90
2022/04/10 10:23:52;;;;;;;4.30;2.37;;;;;;;;;;4972968;28;20454;-94
2022/04/10 10:26:38;;;;;;;2.83;1.80;;;6.70;99.90;;;;;;4974749;28;20963;-91
2022/04/10 10:29:17;;;;;;;8.60;3.67;;;6.40;99.90;;;;;;4992328;28;20446;-92
2022/04/10 10:31:48;;;;;;;1.50;1.40;;;;;;;;;;5055793;28;20453;-94
2022/04/10 10:34:16;;;;;;;2.67;2.03;;;;;;;;;;5056077;28;20490;-92
2022/04/10 10:36:45;;;;;;;2.53;2.33;;;;;;;;;;5037014;28;20807;-92
2022/04/10 10:39:14;;;;;;;9.20;4.20;;;;;;;;;;5051063;28;20554;-93
2022/04/10 10:41:41;;;;;;;4.40;3.17;;;;;;;;;;5064495;28;20462;-92
2022/04/10 10:44:33;;;;;;;7.93;4.20;;;6.60;99.90;;;;;;5074339;28;20484;-92
2022/04/10 10:47:02;;;;;;;4.73;3.90;;;;;;;;;;5072420;28;20805;-90
2022/04/10 10:49:34;;;;;;;5.57;3.80;;;6.60;99.90;;;;;;5064312;28;20973;-94
2022/04/10 10:52:13;;;;;;;7.17;4.30;;;6.80;99.90;;;;;;5035557;28;20463;-91
2022/04/10 10:54:46;;;;;;;4.27;3.87;;;6.80;99.90;;;;;;5034148;28;20505;-92
2022/04/10 10:57:27;;;;;;;6.50;4.63;;;7.20;99.90;;;;;;5027468;28;20870;-91
2022/04/10 10:59:54;;;;;;;7.00;3.90;;;;;;;;;;5031975;28;20488;-91
2022/04/10 11:02:21;;;;;;;1.87;1.50;;;;;;;;;;5037284;28;20927;-93
2022/04/10 11:05:07;;;;;;;7.63;3.60;;;7.50;99.90;;;;;;5036346;28;20459;-91
2022/04/10 11:07:39;;;;;;;3.50;2.27;;;;;;;;;;5052639;28;20548;-94
2022/04/10 11:10:09;;;;;;;21.53;5.20;;;7.70;99.90;;;;;;5051742;28;20466;-92
2022/04/10 11:12:46;;;;;;;5.83;4.23;;;7.50;99.90;;;;;;5055600;28;20457;-93
2022/04/10 11:15:20;;;;;;;5.27;4.77;;;;;;;;;;5050045;28;20985;-94
2022/04/10 11:17:49;;;;;;;5.13;3.30;;;;;;;;;;5055829;28;20442;-91
2022/04/10 11:20:17;;;;;;;7.73;5.20;;;;;;;;;;5051921;28;20458;-93
2022/04/10 11:22:48;;;;;;;6.10;4.40;;;;;;;;;;5035445;28;20447;-94
2022/04/10 11:25:18;;;;;;;6.20;4.23;;;;;;;;;;5036123;28;20521;-95
2022/04/10 11:27:49;;;;;;;8.50;4.53;;;;;;;;;;5033189;28;20455;-93
2022/04/10 11:30:17;;;;;;;5.03;4.40;;;;;;;;;;5034220;28;20451;-94
2022/04/10 11:32:46;;;;;;;4.93;4.03;;;;;;;;;;5031039;28;20543;-93
2022/04/10 11:35:18;;;;;;;5.63;4.10;;;;;;;;;;5029891;28;21012;-93
2022/04/10 11:37:50;;;;;;;5.27;4.70;;;;;;;;;;5031459;28;20501;-93
2022/04/10 11:40:25;;;;;;;5.57;4.90;;;6.80;99.90;;;;;;5036433;28;20883;-92
2022/04/10 11:42:54;;;;;;;6.27;4.97;;;;;;;;;;5038876;28;20458;-92
2022/04/10 11:45:33;;;;;;;7.00;5.60;;;;;;;;;;5043303;28;21010;-93
2022/04/10 11:48:00;;;;;;;8.30;5.17;;;7.60;99.90;;;;;;5037505;28;20475;-90
2022/04/10 11:50:28;;;;;;;5.10;4.47;;;7.50;99.90;;;;;;5037816;28;20451;-92
2022/04/10 11:53:03;;;;;;;8.13;6.77;;;7.00;99.90;;;;;;5037125;28;20997;-90
2022/04/10 11:55:35;;;;;;;7.87;5.93;;;8.20;99.90;;;;;;5032703;28;20435;-90
2022/04/10 11:58:10;;;;;;;6.93;5.10;;;9.70;99.90;;;;;;5034348;28;20865;-92
2022/04/10 12:00:37;;;;;;;11.20;7.50;;;;;;;;;;5036885;28;20476;-92
2022/04/10 12:03:04;;;;;;;10.63;9.33;;;;;;;;;;5072501;22;20522;-91
2022/04/10 12:05:32;;;;;;;9.43;8.60;;;;;;;;;;5057042;28;20447;-89
2022/04/10 12:08:05;;;;;;;7.33;5.00;;;11.50;98.90;;;;;;5056812;28;20446;-90
2022/04/10 12:10:33;;;;;;;9.03;5.73;;;;;;;;;;5056286;28;20451;-90
2022/04/10 12:13:00;;;;;;;5.70;4.70;;;;;;;;;;5052268;28;20773;-88
2022/04/10 12:15:28;;;;;;;6.40;5.40;;;;;;;;;;5055777;28;20877;-88
2022/04/10 12:18:07;;;;;;;4.80;4.33;;;10.00;99.90;;;;;;5050449;28;20467;-88
2022/04/10 12:20:35;;;;;;;9.50;4.40;;;9.90;99.90;;;;;;5056276;28;20450;-90
2022/04/10 12:23:20;;;;;;;4.83;4.13;;;;;;;;;;5005570;28;20445;-93
2022/04/10 12:25:48;;;;;;;12.53;8.60;;;9.30;99.90;;;;;;5057710;28;20958;-89
2022/04/10 12:28:15;;;;;;;13.17;10.70;;;;;;;;;;5050531;28;20462;-89
2022/04/10 12:30:43;;;;;;;12.67;11.60;;;;;;;;;;5055927;28;20450;-88
2022/04/10 12:33:10;;;;;;;7.13;6.00;;;;;;;;;;5049721;28;20541;-90
2022/04/10 12:35:38;;;;;;;8.53;6.97;;;;;;;;;;5056461;28;20490;-90
2022/04/10 12:38:05;;;;;;;6.00;4.17;;;10.90;97.80;;;;;;5058304;28;20458;-90
2022/04/10 12:40:36;;;;;;;6.23;5.20;;;12.60;95.50;;;;;;5057452;28;20447;-90
2022/04/10 12:43:05;;;;;;;2.90;2.50;;;11.60;94.90;;;;;;5058130;28;20454;-88
2022/04/10 12:45:33;;;;;;;2.43;2.23;;;11.00;92.10;;;;;;5054934;28;20527;-91
2022/04/10 12:48:01;;;;;;;9.27;2.47;;;;;;;;;;5056518;28;20466;-90
2022/04/10 12:50:29;;;;;;;3.40;2.10;;;10.90;94.70;;;;;;5036226;28;20443;-91
2022/04/10 12:52:57;;;;;;;4.17;2.90;;;;;;;;;;5042649;28;20454;-90
2022/04/10 12:55:25;;;;;;;3.50;2.80;;;10.90;93.60;;;;;;5072880;28;20500;-92
2022/04/10 12:58:00;;;;;;;4.47;2.70;;;10.90;93.00;;;;;;5075957;28;20461;-90
2022/04/10 13:00:31;;;;;;;2.17;1.97;;;10.60;92.80;;;;;;5071053;28;20450;-90
2022/04/10 13:02:58;;;;;;;2.80;2.37;;;10.70;94.30;;;;;;5054877;28;20476;-89
2022/04/10 13:05:26;;;;;;;4.40;2.90;;;;;;;;;;5050233;28;20958;-90
2022/04/10 13:08:03;;;;;;;4.07;2.50;;;11.50;95.20;;;;;;5057252;28;20473;-92
2022/04/10 13:10:31;;;;;;;7.10;3.57;;;;;;;;;;5060091;28;20469;-90
2022/04/10 13:13:09;;;;;;;4.40;2.73;;;12.30;94.50;;;;;;5057801;28;20451;-91
2022/04/10 13:15:36;;;;;;;4.70;2.97;;;;;;;;;;5063194;28;20497;-89
2022/04/10 13:18:05;;;;;;;3.80;2.60;;;;;;;;;;5057103;28;20457;-95
2022/04/10 13:20:51;;;;;;;6.00;2.90;;;10.10;95.60;;;;;;5060441;28;20446;-95
2022/04/10 13:23:19;;;;;;;4.83;3.23;;;;;;;;;;5055519;28;20486;-91
2022/04/10 13:25:46;;;;;;;11.87;6.27;;;;;;;;;;5058774;28;20507;-91
2022/04/10 13:28:15;;;;;;;5.73;3.70;;;;;;;;;;5056883;28;20450;-90
2022/04/10 13:30:42;;;;;;;5.50;3.30;;;;;;;;;;5054703;28;20455;-90
2022/04/10 13:33:09;;;;;;;4.93;3.60;;;;;;;;;;5056595;28;20447;-91
2022/04/10 13:35:36;;;;;;;5.13;3.37;;;;;;;;;;5057226;28;20490;-90
2022/04/10 13:38:03;;;;;;;5.00;3.97;;;;;;;;;;5057310;28;20479;-90
2022/04/10 13:40:31;;;;;;;5.30;3.43;;;;;;;;;;5056738;28;20454;-92
2022/04/10 13:42:59;;;;;;;5.40;3.53;;;;;;;;;;5056368;28;20517;-91
2022/04/10 13:45:28;;;;;;;3.97;3.57;;;;;;;;;;5053756;28;20453;-91
2022/04/10 13:47:55;;;;;;;10.10;7.00;;;;;;;;;;5056052;28;20930;-91
2022/04/10 13:50:22;;;;;;;4.33;3.67;;;;;;;;;;5056529;28;20447;-90
2022/04/10 13:52:49;;;;;;;4.80;4.30;;;;;;;;;;5052699;28;20457;-90
2022/04/10 13:55:16;;;;;;;4.37;3.70;;;;;;;;;;5055246;28;20505;-91
2022/04/10 13:57:43;;;;;;;4.83;3.97;;;;;;;;;;5052374;28;20458;-94
2022/04/10 14:00:12;;;;;;;4.53;3.47;;;9.90;99.90;;;;;;5055945;28;20445;-91
2022/04/10 14:02:41;;;;;;;4.73;3.90;;;9.90;99.90;;;;;;5054587;28;20442;-92
2022/04/10 14:05:09;;;;;;;5.30;3.33;;;9.90;99.90;;;;;;5052901;28;20486;-92
2022/04/10 14:07:36;;;;;;;4.07;3.53;;;;;;;;;;5056013;28;20451;-91
2022/04/10 14:10:04;;;;;;;4.60;3.10;;;10.20;99.00;;;;;;5055658;28;20446;-89
2022/04/10 14:12:32;;;;;;;4.53;3.40;;;;;;;;;;5056241;28;20453;-90
2022/04/10 14:14:59;;;;;;;5.73;3.33;;;;;;;;;;5055740;28;20489;-89
2022/04/10 14:17:26;;;;;;;5.70;3.20;;;;;;;;;;5052409;28;20516;-91
2022/04/10 14:19:55;;;;;;;4.10;2.43;;;10.40;97.00;;;;;;5056294;28;20459;-92
2022/04/10 14:22:22;;;;;;;5.27;3.00;;;;;;;;;;5051546;28;20458;-90
2022/04/10 14:24:49;;;;;;;3.87;3.23;;;;;;;;;;5055070;28;20469;-93
2022/04/10 14:27:16;;;;;;;5.13;3.10;;;;;;;;;;5054963;28;20439;-91
2022/04/10 14:29:43;;;;;;;4.30;3.20;;;;;;;;;;5056768;28;20439;-94
2022/04/10 14:32:10;;;;;;;3.53;2.80;;;;;;;;;;5052495;28;20431;-92
2022/04/10 14:34:38;;;;;;;4.80;2.63;;;;;;;;;;5052766;28;20482;-91
2022/04/10 14:37:07;;;;;;;4.90;2.57;;;10.10;97.40;;;;;;5050249;28;20443;-92